Alma, Illinois
Current Conditions -  °F | °C
As of 9:15 PM on Monday 26 Jan 2015 (Local Time) from KSLO Reporting Station
Overcast Overcast  
Wind Chill: 29°   Ceiling: 3400
Heat Index: 34°   Visibility: 7mi
Dew Point: 30°   Wind: 6mph
Humidity: 85%   Direction: 170°S
Pressure: 29.91"   Gusts: NA
Location:  38.72°N, 88.91°W
Report Text: KSLO 270315Z AUTO 17005KT 7SM BKN034 BKN040 OVC048 01/M01 A2991 RMK AO2 T00121010
Loading
Personal Weather Stations






























Interactive Weather Map New forecast layout! Learn more

10-Day Weather Forecast

Advertisements
Track Severe Weather on mobile